createdAt,value
2019-04-05T00:00:40.775Z,13.00
2019-04-05T00:03:11.124Z,13.70
2019-04-05T00:05:41.499Z,12.57
2019-04-05T00:08:12.481Z,14.57
2019-04-05T00:10:42.757Z,13.20
2019-04-05T00:13:13.130Z,14.17
2019-04-05T00:15:43.703Z,13.57
2019-04-05T00:18:14.067Z,13.07
2019-04-05T00:20:44.531Z,20.40
2019-04-05T00:23:14.810Z,19.00
2019-04-05T00:25:45.183Z,13.07
2019-04-05T00:28:15.527Z,15.37
2019-04-05T00:30:46.024Z,13.47
2019-04-05T00:33:16.495Z,13.93
2019-04-05T00:35:46.823Z,13.83
2019-04-05T00:38:17.181Z,28.70
2019-04-05T00:40:47.642Z,23.07
2019-04-05T00:43:18.030Z,33.27
2019-04-05T00:45:48.354Z,16.13
2019-04-05T00:48:19.433Z,30.87
2019-04-05T00:50:49.797Z,14.43
2019-04-05T00:53:20.285Z,22.47
2019-04-05T00:55:52.090Z,14.17
2019-04-05T00:58:22.517Z,14.90
2019-04-05T01:00:52.837Z,15.70
2019-04-05T01:03:23.119Z,17.10
2019-04-05T01:05:53.551Z,16.47
2019-04-05T01:08:24.416Z,15.30
2019-04-05T01:10:54.763Z,16.17
2019-04-05T01:13:25.796Z,15.87
2019-04-05T01:15:56.117Z,20.80
2019-04-05T01:18:26.420Z,16.63
2019-04-05T01:20:59.967Z,19.73
2019-04-05T01:23:30.519Z,17.27
2019-04-05T01:26:02.314Z,17.13
2019-04-05T01:28:32.864Z,18.20
2019-04-05T01:31:03.270Z,17.10
2019-04-05T01:33:33.743Z,17.43
2019-04-05T01:36:04.227Z,26.13
2019-04-05T01:38:34.579Z,18.07
2019-04-05T01:41:05.157Z,19.17
2019-04-05T01:43:35.506Z,23.33
2019-04-05T01:46:06.074Z,21.03
2019-04-05T01:48:36.365Z,22.03
2019-04-05T01:51:07.630Z,20.30
2019-04-05T01:53:37.995Z,20.10
2019-04-05T01:56:08.476Z,20.50
2019-04-05T01:58:38.819Z,21.43
2019-04-05T02:01:09.196Z,18.90
2019-04-05T02:03:39.534Z,23.20
2019-04-05T02:06:09.920Z,22.43
2019-04-05T02:08:41.291Z,22.13
2019-04-05T02:11:11.671Z,23.43
2019-04-05T02:13:42.227Z,21.20
2019-04-05T02:16:12.724Z,22.63
2019-04-05T02:18:43.479Z,23.73
2019-04-05T02:21:13.826Z,22.53
2019-04-05T02:23:44.202Z,23.30
2019-04-05T02:26:14.630Z,22.70
2019-04-05T02:28:45.035Z,22.67
2019-04-05T02:31:15.673Z,24.43
2019-04-05T02:33:46.262Z,24.17
2019-04-05T02:36:16.844Z,23.77
2019-04-05T02:38:47.240Z,23.80
2019-04-05T02:41:19.079Z,23.40
2019-04-05T02:43:51.761Z,24.67
2019-04-05T02:46:24.169Z,24.63
2019-04-05T02:48:56.246Z,23.53
2019-04-05T02:51:28.335Z,22.67
2019-04-05T02:54:00.671Z,24.30
2019-04-05T02:56:33.374Z,23.17
2019-04-05T02:59:05.734Z,22.90
2019-04-05T03:01:36.564Z,23.60
2019-04-05T03:04:07.295Z,23.87
2019-04-05T03:06:38.350Z,23.63
2019-04-05T03:09:09.442Z,24.10
2019-04-05T03:11:41.727Z,22.90
2019-04-05T03:14:12.672Z,23.03
2019-04-05T03:16:46.032Z,22.97
2019-04-05T03:19:20.372Z,22.00
2019-04-05T03:21:58.523Z,23.03
2019-04-05T03:24:31.911Z,22.53
2019-04-05T03:27:14.405Z,22.73
2019-04-05T03:29:45.581Z,21.40
2019-04-05T03:32:17.057Z,22.90
2019-04-05T03:34:48.112Z,23.63
2019-04-05T03:37:19.259Z,23.03
2019-04-05T03:39:49.591Z,21.70
2019-04-05T03:42:20.965Z,21.83
2019-04-05T03:44:51.755Z,22.30
2019-04-05T03:47:22.169Z,21.70
2019-04-05T03:49:52.636Z,22.97
2019-04-05T03:52:22.980Z,24.50
2019-04-05T03:54:53.995Z,24.83
2019-04-05T03:57:25.010Z,22.23
2019-04-05T03:59:55.479Z,20.67
2019-04-05T04:02:26.429Z,22.03
2019-04-05T04:04:57.041Z,21.23
2019-04-05T04:07:27.451Z,22.40
2019-04-05T04:09:57.977Z,21.13
2019-04-05T04:12:30.463Z,23.07
2019-04-05T04:15:19.555Z,23.57
2019-04-05T04:17:50.594Z,21.57
2019-04-05T04:20:40.963Z,21.87
2019-04-05T04:23:12.735Z,21.77
2019-04-05T04:25:43.492Z,20.73
2019-04-05T04:28:14.258Z,21.63
2019-04-05T04:30:45.702Z,22.00
2019-04-05T04:33:16.486Z,21.40
2019-04-05T04:35:47.152Z,21.53
2019-04-05T04:38:17.894Z,21.77
2019-04-05T04:40:48.455Z,20.83
2019-04-05T04:43:19.646Z,20.60
2019-04-05T04:45:51.021Z,20.23
2019-04-05T04:48:21.623Z,20.77
2019-04-05T04:50:52.487Z,22.30
2019-04-05T04:53:23.030Z,20.40
2019-04-05T04:55:53.606Z,20.10
2019-04-05T04:58:24.081Z,21.23
2019-04-05T05:00:54.610Z,20.20
2019-04-05T05:03:25.296Z,22.10
2019-04-05T05:05:55.963Z,20.93
2019-04-05T05:08:26.521Z,20.13
2019-04-05T05:10:56.920Z,20.30
2019-04-05T05:13:27.972Z,21.13
2019-04-05T05:15:58.564Z,20.97
2019-04-05T05:18:29.014Z,20.03
2019-04-05T05:20:59.811Z,19.97
2019-04-05T05:23:30.677Z,20.77
2019-04-05T05:26:01.160Z,20.10
2019-04-05T05:28:32.915Z,20.60
2019-04-05T05:31:03.775Z,19.80
2019-04-05T05:33:34.318Z,20.97
2019-04-05T05:36:05.477Z,21.33
2019-04-05T05:38:35.950Z,19.13
2019-04-05T05:41:06.296Z,20.00
2019-04-05T05:43:36.863Z,19.63
2019-04-05T05:46:07.459Z,19.67
2019-04-05T05:48:38.377Z,19.53
2019-04-05T05:51:09.247Z,19.93
2019-04-05T05:53:40.279Z,19.33
2019-04-05T05:56:10.659Z,20.80
2019-04-05T05:58:41.016Z,20.33
2019-04-05T06:01:11.402Z,20.20
2019-04-05T06:03:41.783Z,21.13
2019-04-05T06:06:12.154Z,19.40
2019-04-05T06:08:46.054Z,19.67
2019-04-05T06:11:16.414Z,19.93
2019-04-05T06:13:46.763Z,19.20
2019-04-05T06:16:17.530Z,17.73
2019-04-05T06:18:48.664Z,19.73
2019-04-05T06:21:19.239Z,20.20
2019-04-05T06:23:49.602Z,20.23
2019-04-05T06:26:20.070Z,20.70
2019-04-05T06:28:50.481Z,20.60
2019-04-05T06:31:20.975Z,20.03
2019-04-05T06:33:51.387Z,20.70
2019-04-05T06:36:40.677Z,21.87
2019-04-05T06:39:11.071Z,19.93
2019-04-05T06:41:41.405Z,20.97
2019-04-05T06:44:11.812Z,22.57
2019-04-05T06:46:42.195Z,21.93
2019-04-05T06:49:12.560Z,19.50
2019-04-05T06:51:42.926Z,19.53
2019-04-05T06:54:13.267Z,19.90
2019-04-05T06:56:43.618Z,19.97
2019-04-05T06:59:13.911Z,21.30
2019-04-05T07:01:44.375Z,17.50
2019-04-05T07:04:14.759Z,22.37
2019-04-05T07:06:45.112Z,18.30
2019-04-05T07:09:15.455Z,21.00
2019-04-05T07:11:45.798Z,20.23
2019-04-05T07:14:16.205Z,20.20
2019-04-05T07:16:46.656Z,19.83
2019-04-05T07:19:17.009Z,19.00
2019-04-05T07:21:47.422Z,17.60
2019-04-05T07:24:17.763Z,19.07
2019-04-05T07:26:48.161Z,17.43
2019-04-05T07:29:18.518Z,17.40
2019-04-05T07:31:48.903Z,17.67
2019-04-05T07:34:19.254Z,18.60
2019-04-05T07:36:49.636Z,18.23
2019-04-05T07:39:19.996Z,18.97
2019-04-05T07:41:50.359Z,18.33
2019-04-05T07:44:20.733Z,18.40
2019-04-05T07:46:51.119Z,18.83
2019-04-05T07:49:21.727Z,16.13
2019-04-05T07:51:52.036Z,18.67
2019-04-05T07:54:22.755Z,18.17
2019-04-05T07:56:53.074Z,17.37
2019-04-05T07:59:23.476Z,17.40
2019-04-05T08:01:53.887Z,17.67
2019-04-05T08:04:24.319Z,17.33
2019-04-05T08:06:56.887Z,17.07
2019-04-05T08:09:28.958Z,17.37
2019-04-05T08:11:59.847Z,17.30
2019-04-05T08:14:30.339Z,17.30
2019-04-05T08:17:00.811Z,16.07
2019-04-05T08:19:31.222Z,15.97
2019-04-05T08:22:01.675Z,16.70
2019-04-05T08:24:32.088Z,15.40
2019-04-05T08:27:02.531Z,17.10
2019-04-05T08:29:32.898Z,15.03
2019-04-05T08:32:13.964Z,14.37
2019-04-05T08:34:35.354Z,16.07
2019-04-05T08:37:05.748Z,16.10
2019-04-05T08:39:36.110Z,15.07
2019-04-05T08:42:06.709Z,16.07
2019-04-05T08:44:37.202Z,17.00
2019-04-05T08:47:07.671Z,16.93
2019-04-05T08:49:38.159Z,15.00
2019-04-05T08:52:08.515Z,14.50
2019-04-05T08:54:38.903Z,15.60
2019-04-05T08:57:09.270Z,15.90
2019-04-05T08:59:39.637Z,14.00
2019-04-05T09:02:10.045Z,15.53
2019-04-05T09:04:40.396Z,15.00
2019-04-05T09:07:10.755Z,14.83
2019-04-05T09:09:41.078Z,13.60
2019-04-05T09:12:11.501Z,13.43
2019-04-05T09:14:41.884Z,12.63
2019-04-05T09:17:12.227Z,13.53
2019-04-05T09:19:42.571Z,11.73
2019-04-05T09:22:12.919Z,12.03
2019-04-05T09:24:43.314Z,11.80
2019-04-05T09:27:13.689Z,9.07
2019-04-05T09:29:44.016Z,10.30
2019-04-05T09:32:14.357Z,10.80
2019-04-05T09:34:44.761Z,10.03
2019-04-05T09:37:15.186Z,11.70
2019-04-05T09:39:45.582Z,10.23
2019-04-05T09:42:15.890Z,11.17
2019-04-05T09:44:46.266Z,10.13
2019-04-05T09:47:16.773Z,10.30
2019-04-05T09:49:47.110Z,9.43
2019-04-05T09:52:17.456Z,9.73
2019-04-05T09:54:47.852Z,8.93
2019-04-05T09:57:18.273Z,10.47
2019-04-05T09:59:48.586Z,8.07
2019-04-05T10:02:18.991Z,9.40
2019-04-05T10:04:49.422Z,8.80
2019-04-05T10:07:19.766Z,9.10
2019-04-05T10:09:50.503Z,8.93
2019-04-05T10:12:20.939Z,8.93
2019-04-05T10:14:51.260Z,8.50
2019-04-05T10:17:21.694Z,8.63
2019-04-05T10:19:52.062Z,6.77
2019-04-05T10:22:22.432Z,8.43
2019-04-05T10:24:52.797Z,8.90
2019-04-05T10:27:23.231Z,8.70
2019-04-05T10:29:53.624Z,8.43
2019-04-05T10:32:23.970Z,8.60
2019-04-05T10:34:54.353Z,9.77
2019-04-05T10:37:24.710Z,8.83
2019-04-05T10:39:55.102Z,7.70
2019-04-05T10:42:36.783Z,8.37
2019-04-05T10:45:09.278Z,8.60
2019-04-05T10:47:39.770Z,8.87
2019-04-05T10:50:11.803Z,8.53
2019-04-05T10:52:42.238Z,8.53
2019-04-05T10:55:13.084Z,9.03
2019-04-05T10:57:43.517Z,9.13
2019-04-05T11:00:17.845Z,8.67
2019-04-05T11:02:48.274Z,8.07
2019-04-05T11:05:18.720Z,8.17
2019-04-05T11:07:49.135Z,9.03
2019-04-05T11:10:20.099Z,7.77
2019-04-05T11:12:50.518Z,8.10
2019-04-05T11:15:21.206Z,7.77
2019-04-05T11:17:51.601Z,7.07
2019-04-05T11:20:22.439Z,8.13
2019-04-05T11:22:53.058Z,5.00
2019-04-05T11:25:23.421Z,7.23
2019-04-05T11:27:53.775Z,7.20
2019-04-05T11:30:41.217Z,7.90
2019-04-05T11:33:11.629Z,7.70
2019-04-05T11:35:42.290Z,7.10
2019-04-05T11:38:14.376Z,8.57
2019-04-05T11:40:45.486Z,7.60
2019-04-05T11:43:16.887Z,8.10
2019-04-05T11:45:48.565Z,7.87
2019-04-05T11:48:19.887Z,8.00
2019-04-05T11:50:50.352Z,7.97
2019-04-05T11:53:22.117Z,8.23
2019-04-05T11:55:52.695Z,7.70
2019-04-05T11:58:23.076Z,8.67
2019-04-05T12:01:01.247Z,9.10
2019-04-05T12:03:31.631Z,8.83
2019-04-05T12:06:02.039Z,7.87
2019-04-05T12:08:32.370Z,6.90
2019-04-05T12:11:02.703Z,7.07
2019-04-05T12:13:33.155Z,8.80
2019-04-05T12:16:03.718Z,8.50
2019-04-05T12:18:35.573Z,8.37
2019-04-05T12:21:06.090Z,7.47
2019-04-05T12:23:36.925Z,7.37
2019-04-05T12:26:07.293Z,7.27
2019-04-05T12:28:37.636Z,8.10
2019-04-05T12:31:07.974Z,7.77
2019-04-05T12:33:38.357Z,8.13
2019-04-05T12:36:08.694Z,6.40
2019-04-05T12:38:39.040Z,7.33
2019-04-05T12:41:10.973Z,6.90
2019-04-05T12:43:43.792Z,7.90
2019-04-05T12:46:16.135Z,7.10
2019-04-05T12:48:46.309Z,7.23
2019-04-05T12:51:16.978Z,6.67
2019-04-05T12:53:47.340Z,6.93
2019-04-05T12:56:17.705Z,6.50
2019-04-05T12:58:48.043Z,7.30
2019-04-05T13:01:18.409Z,7.27
2019-04-05T13:03:51.117Z,6.90
2019-04-05T13:06:21.783Z,7.13
2019-04-05T13:08:53.718Z,6.80
2019-04-05T13:11:26.617Z,6.90
2019-04-05T13:13:57.045Z,6.87
2019-04-05T13:16:27.434Z,6.47
2019-04-05T13:19:00.431Z,4.97
2019-04-05T13:21:32.054Z,6.80
2019-04-05T13:24:04.241Z,7.63
2019-04-05T13:26:36.588Z,6.97
2019-04-05T13:29:05.730Z,6.40
2019-04-05T13:31:36.057Z,6.53
2019-04-05T13:34:06.380Z,6.57
2019-04-05T13:36:36.696Z,6.43
2019-04-05T13:39:09.125Z,7.07
2019-04-05T13:41:39.568Z,6.70
2019-04-05T13:44:09.899Z,6.60
2019-04-05T13:46:42.585Z,6.50
2019-04-05T13:49:12.342Z,6.57
2019-04-05T13:51:42.910Z,6.67
2019-04-05T13:54:13.414Z,6.23
2019-04-05T13:56:43.769Z,6.53
2019-04-05T13:59:14.113Z,6.23
2019-04-05T14:01:44.462Z,6.40
2019-04-05T14:04:17.035Z,6.07
2019-04-05T14:06:46.816Z,6.30
2019-04-05T14:09:17.166Z,7.03
2019-04-05T14:11:47.498Z,6.47
2019-04-05T14:14:17.850Z,6.83
2019-04-05T14:16:48.181Z,6.43
2019-04-05T14:19:19.351Z,6.70
2019-04-05T14:21:52.682Z,6.03
2019-04-05T14:24:23.494Z,6.13
2019-04-05T14:26:53.942Z,6.43
2019-04-05T14:29:24.313Z,6.97
2019-04-05T14:31:54.667Z,6.63
2019-04-05T14:34:25.028Z,6.80
2019-04-05T14:36:55.424Z,7.03
2019-04-05T14:39:25.783Z,7.17
2019-04-05T14:42:08.825Z,6.77
2019-04-05T14:44:28.214Z,7.57
2019-04-05T14:46:58.786Z,6.93
2019-04-05T14:49:30.583Z,7.00
2019-04-05T14:52:01.917Z,6.93
2019-04-05T14:54:32.412Z,6.53
2019-04-05T14:57:05.696Z,6.60
2019-04-05T14:59:34.760Z,6.77
2019-04-05T15:02:05.297Z,6.87
2019-04-05T15:04:35.650Z,6.53
2019-04-05T15:07:06.029Z,6.17
2019-04-05T15:09:36.404Z,6.70
2019-04-05T15:12:07.173Z,6.83
2019-04-05T15:14:37.672Z,6.60
2019-04-05T15:17:08.192Z,6.90
2019-04-05T15:19:38.765Z,6.63
2019-04-05T15:22:11.737Z,6.73
2019-04-05T15:24:41.188Z,6.83
2019-04-05T15:27:11.545Z,6.73
2019-04-05T15:29:41.931Z,7.50
2019-04-05T15:32:12.297Z,7.00
2019-04-05T15:34:42.674Z,8.57
2019-04-05T15:37:15.838Z,6.53
2019-04-05T15:39:45.099Z,6.90
2019-04-05T15:42:15.502Z,7.43
2019-04-05T15:44:45.947Z,7.27
2019-04-05T15:47:16.336Z,7.40
2019-04-05T15:49:46.708Z,10.20
2019-04-05T15:52:18.922Z,10.53
2019-04-05T15:54:49.166Z,8.20
2019-04-05T15:57:19.508Z,7.80
2019-04-05T15:59:49.839Z,8.90
2019-04-05T16:02:20.318Z,10.90
2019-04-05T16:04:50.827Z,8.80
2019-04-05T16:07:21.299Z,8.70
2019-04-05T16:09:51.642Z,8.97
2019-04-05T16:12:22.015Z,8.43
2019-04-05T16:14:52.298Z,8.83
2019-04-05T16:17:22.679Z,7.40
2019-04-05T16:19:53.073Z,7.73
2019-04-05T16:22:31.307Z,9.00
2019-04-05T16:24:55.426Z,9.83
2019-04-05T16:27:25.764Z,9.53
2019-04-05T16:29:56.158Z,8.10
2019-04-05T16:32:26.522Z,8.43
2019-04-05T16:34:57.823Z,6.60
2019-04-05T16:37:28.191Z,8.93
2019-04-05T16:39:58.570Z,8.33
2019-04-05T16:42:28.849Z,8.30
2019-04-05T16:44:59.198Z,9.93
2019-04-05T16:47:29.605Z,10.53
2019-04-05T16:49:59.970Z,10.50
2019-04-05T16:52:30.337Z,10.80
2019-04-05T16:55:00.748Z,10.73
2019-04-05T16:57:34.790Z,11.43
2019-04-05T17:00:06.178Z,10.87
2019-04-05T17:02:36.553Z,11.10
2019-04-05T17:05:07.591Z,8.93
2019-04-05T17:07:38.008Z,8.53
2019-04-05T17:10:08.633Z,22.37
2019-04-05T17:12:38.998Z,8.67
2019-04-05T17:15:11.079Z,10.13
2019-04-05T17:17:41.478Z,15.63
2019-04-05T17:20:11.932Z,17.03
2019-04-05T17:22:42.331Z,31.67
2019-04-05T17:25:13.019Z,47.53
2019-04-05T17:27:43.398Z,51.07
2019-04-05T17:30:14.183Z,19.53
2019-04-05T17:32:44.659Z,16.10
2019-04-05T17:35:15.168Z,32.13
2019-04-05T17:37:45.536Z,44.90
2019-04-05T17:40:16.199Z,14.43
2019-04-05T17:42:46.572Z,30.93
2019-04-05T17:45:17.147Z,27.20
2019-04-05T17:47:47.504Z,60.83
2019-04-05T17:50:29.806Z,218.97
2019-04-05T17:53:11.457Z,147.57
2019-04-05T17:55:32.381Z,79.07
2019-04-05T17:58:05.734Z,250.23
2019-04-05T18:00:36.556Z,233.83
2019-04-05T18:05:42.894Z,207.10
2019-04-05T18:08:13.305Z,57.17
2019-04-05T18:10:43.691Z,94.13
2019-04-05T18:13:14.082Z,85.77
2019-04-05T18:15:52.377Z,61.37
2019-04-05T18:18:16.667Z,33.07
2019-04-05T18:20:47.034Z,189.43
2019-04-05T18:23:24.781Z,51.60
2019-04-05T18:25:49.523Z,44.90
2019-04-05T18:28:19.962Z,71.97
2019-04-05T18:30:50.268Z,16.97
2019-04-05T18:33:20.637Z,64.77
2019-04-05T18:35:51.000Z,25.17
2019-04-05T18:38:21.371Z,30.40
2019-04-05T18:40:51.947Z,62.43
2019-04-05T18:43:22.426Z,40.07
2019-04-05T18:45:52.761Z,24.60
2019-04-05T18:48:23.107Z,19.50
2019-04-05T18:50:53.490Z,27.27
2019-04-05T18:53:36.754Z,215.93
2019-04-05T18:55:55.868Z,143.90
2019-04-05T18:58:26.267Z,130.70
2019-04-05T19:00:56.654Z,92.53
2019-04-05T19:03:27.034Z,94.63
2019-04-05T19:05:57.471Z,205.77
2019-04-05T19:08:39.108Z,34.20
2019-04-05T19:10:59.784Z,89.83
2019-04-05T19:13:30.183Z,129.13
2019-04-05T19:16:00.549Z,79.00
2019-04-05T19:18:30.928Z,44.97
2019-04-05T19:21:01.378Z,53.97
2019-04-05T19:23:31.775Z,90.30
2019-04-05T19:26:02.138Z,116.13
2019-04-05T19:28:32.524Z,177.17
2019-04-05T19:48:46.920Z,137.23
2019-04-05T19:51:17.274Z,49.87
2019-04-05T19:53:47.648Z,184.07
2019-04-05T19:56:18.057Z,86.63
2019-04-05T19:58:48.445Z,146.93
2019-04-05T20:01:18.833Z,16.23
2019-04-05T20:03:49.212Z,44.43
2019-04-05T20:06:19.576Z,74.00
2019-04-05T20:08:49.929Z,60.47
2019-04-05T20:11:20.306Z,13.70
2019-04-05T20:13:50.664Z,39.40
2019-04-05T20:16:21.099Z,118.73
2019-04-05T20:18:51.545Z,54.63
2019-04-05T20:21:21.921Z,35.27
2019-04-05T20:23:52.281Z,37.07
2019-04-05T20:26:22.658Z,15.57
2019-04-05T20:28:53.118Z,39.73
2019-04-05T20:31:23.471Z,21.07
2019-04-05T20:33:53.816Z,20.63
2019-04-05T20:36:24.186Z,63.30
2019-04-05T20:38:54.656Z,57.30
2019-04-05T20:41:25.012Z,30.53
2019-04-05T20:43:55.405Z,41.30
2019-04-05T20:46:25.686Z,24.77
2019-04-05T20:48:56.059Z,103.20
2019-04-05T20:51:26.436Z,34.00
2019-04-05T20:53:56.812Z,17.97
2019-04-05T20:56:27.164Z,18.53
2019-04-05T20:58:57.622Z,13.43
2019-04-05T21:01:27.979Z,19.20
2019-04-05T21:03:58.334Z,41.83
2019-04-05T21:06:28.690Z,31.70
2019-04-05T21:08:59.074Z,24.80
2019-04-05T21:11:29.500Z,25.00
2019-04-05T21:13:59.930Z,15.27
2019-04-05T21:16:30.308Z,29.17
2019-04-05T21:19:00.640Z,30.53
2019-04-05T21:21:31.070Z,24.10
2019-04-05T21:24:01.359Z,24.93
2019-04-05T21:26:31.712Z,67.97
2019-04-05T21:29:02.055Z,26.93
2019-04-05T21:31:32.397Z,14.87
2019-04-05T21:34:02.812Z,42.73
2019-04-05T21:36:33.162Z,26.87
2019-04-05T21:39:04.956Z,28.03
2019-04-05T21:41:35.319Z,10.70
2019-04-05T21:44:05.859Z,32.30
2019-04-05T21:46:36.242Z,16.30
2019-04-05T21:49:06.725Z,33.67
2019-04-05T21:51:37.597Z,24.90
2019-04-05T21:54:07.961Z,13.50
2019-04-05T21:56:38.352Z,12.93
2019-04-05T21:59:08.750Z,23.83
2019-04-05T22:01:39.604Z,17.90
2019-04-05T22:04:09.935Z,30.23
2019-04-05T22:06:40.297Z,17.90
2019-04-05T22:09:11.402Z,39.70
2019-04-05T22:11:41.931Z,32.37
2019-04-05T22:14:12.582Z,21.37
2019-04-05T22:16:42.976Z,47.37
2019-04-05T22:19:13.331Z,14.80
2019-04-05T22:21:43.674Z,61.17
2019-04-05T22:24:14.055Z,13.57
2019-04-05T22:26:44.418Z,31.70
2019-04-05T22:29:14.798Z,31.87
2019-04-05T22:31:45.147Z,37.43
2019-04-05T22:34:15.511Z,76.03
2019-04-05T22:36:45.883Z,97.63
2019-04-05T22:39:16.282Z,13.70
2019-04-05T22:41:46.691Z,41.50
2019-04-05T22:44:17.029Z,29.30
2019-04-05T22:46:47.325Z,27.43
2019-04-05T22:49:17.674Z,39.20
2019-04-05T22:51:48.122Z,40.83
2019-04-05T22:54:18.459Z,16.17
2019-04-05T22:56:48.826Z,39.37
2019-04-05T22:59:19.118Z,21.97
2019-04-05T23:01:49.476Z,12.30
2019-04-05T23:04:19.806Z,22.50
2019-04-05T23:06:50.187Z,22.27
2019-04-05T23:09:20.502Z,16.60
2019-04-05T23:11:50.839Z,13.37
2019-04-05T23:14:21.245Z,13.17
2019-04-05T23:16:51.584Z,13.60
2019-04-05T23:19:21.958Z,12.63
2019-04-05T23:21:52.285Z,12.00
2019-04-05T23:24:22.659Z,12.50
2019-04-05T23:26:53.027Z,12.77
2019-04-05T23:29:23.456Z,12.43
2019-04-05T23:31:53.806Z,12.53
2019-04-05T23:34:24.114Z,13.17
2019-04-05T23:36:54.530Z,13.87
2019-04-05T23:39:24.897Z,12.13
2019-04-05T23:41:55.198Z,12.20
2019-04-05T23:44:25.590Z,12.97
2019-04-05T23:46:55.971Z,12.80
2019-04-05T23:49:26.330Z,12.90
2019-04-05T23:51:56.798Z,12.53
2019-04-05T23:54:27.177Z,12.77
2019-04-05T23:56:57.606Z,12.60
2019-04-05T23:59:27.902Z,12.63
